createdAt,value
2023-01-19T00:01:18.394Z,69.43
2023-01-19T00:05:22.050Z,69.15
2023-01-19T00:09:25.143Z,69.14
2023-01-19T00:13:29.689Z,68.72
2023-01-19T00:17:32.730Z,68.84
2023-01-19T00:21:35.764Z,68.82
2023-01-19T00:25:42.426Z,68.79
2023-01-19T00:29:47.219Z,68.46
2023-01-19T00:33:52.718Z,68.37
2023-01-19T00:37:57.027Z,68.62
2023-01-19T00:42:17.594Z,68.16
2023-01-19T00:46:27.232Z,68.58
2023-01-19T00:50:32.139Z,68.45
2023-01-19T00:54:35.158Z,68.49
2023-01-19T00:58:38.192Z,68.06
2023-01-19T01:02:44.036Z,68.36
2023-01-19T01:06:47.283Z,67.96
2023-01-19T01:10:51.937Z,68.22
2023-01-19T01:14:55.569Z,68.03
2023-01-19T01:18:59.932Z,68.11
2023-01-19T01:23:03.372Z,68.03
2023-01-19T01:27:07.242Z,67.62
2023-01-19T01:31:10.816Z,66.98
2023-01-19T01:35:16.126Z,66.91
2023-01-19T01:39:19.305Z,66.90
2023-01-19T01:43:22.311Z,66.68
2023-01-19T01:47:32.592Z,65.93
2023-01-19T01:51:42.080Z,66.07
2023-01-19T01:55:48.114Z,66.38
2023-01-19T01:59:52.192Z,66.65
2023-01-19T02:03:56.308Z,66.35
2023-01-19T02:08:23.461Z,66.02
2023-01-19T02:12:44.413Z,65.82
2023-01-19T02:16:47.906Z,65.51
2023-01-19T02:21:01.195Z,65.73
2023-01-19T02:25:06.783Z,65.78
2023-01-19T02:29:11.698Z,65.55
2023-01-19T02:33:14.961Z,65.40
2023-01-19T02:37:19.496Z,65.40
2023-01-19T02:41:27.798Z,65.38
2023-01-19T02:45:31.653Z,65.00
2023-01-19T02:49:34.760Z,64.95
2023-01-19T02:54:02.062Z,65.02
2023-01-19T02:58:12.875Z,64.88
2023-01-19T03:02:27.844Z,64.93
2023-01-19T03:06:42.778Z,65.03
2023-01-19T03:10:54.052Z,65.18
2023-01-19T03:15:03.504Z,65.09
2023-01-19T03:19:10.828Z,65.07
2023-01-19T03:23:16.605Z,65.58
2023-01-19T03:27:24.415Z,65.62
2023-01-19T03:31:32.376Z,65.74
2023-01-19T03:35:40.726Z,65.94
2023-01-19T03:39:44.231Z,66.13
2023-01-19T03:43:50.152Z,66.59
2023-01-19T03:47:56.052Z,66.51
2023-01-19T03:52:00.119Z,66.81
2023-01-19T03:56:03.842Z,66.65
2023-01-19T04:00:08.311Z,66.81
2023-01-19T04:04:16.632Z,66.69
2023-01-19T04:08:19.742Z,66.70
2023-01-19T04:12:22.792Z,66.74
2023-01-19T04:16:25.841Z,66.75
2023-01-19T04:20:30.692Z,66.61
2023-01-19T04:24:33.765Z,66.63
2023-01-19T04:28:38.117Z,66.57
2023-01-19T04:32:41.211Z,66.84
2023-01-19T04:36:46.986Z,66.54
2023-01-19T04:40:50.596Z,66.40
2023-01-19T04:44:53.790Z,66.62
2023-01-19T04:48:56.868Z,66.55
2023-01-19T04:53:02.562Z,66.51
2023-01-19T04:57:06.039Z,66.40
2023-01-19T05:01:10.016Z,66.58
2023-01-19T05:05:14.396Z,66.19
2023-01-19T05:09:18.804Z,66.35
2023-01-19T05:13:21.902Z,66.41
2023-01-19T05:17:25.151Z,66.39
2023-01-19T05:21:28.342Z,66.41
2023-01-19T05:25:32.732Z,66.59
2023-01-19T05:29:35.771Z,66.50
2023-01-19T05:33:38.974Z,66.69
2023-01-19T05:37:42.031Z,66.74
2023-01-19T05:41:46.564Z,66.97
2023-01-19T05:45:49.574Z,66.85
2023-01-19T05:49:52.478Z,66.89
2023-01-19T05:53:55.523Z,66.90
2023-01-19T05:57:59.965Z,67.03
2023-01-19T06:02:03.012Z,66.89
2023-01-19T06:06:06.469Z,66.89
2023-01-19T06:10:11.004Z,67.13
2023-01-19T06:14:15.730Z,66.92
2023-01-19T06:18:18.615Z,67.00
2023-01-19T06:22:21.548Z,67.11
2023-01-19T06:26:24.473Z,67.16
2023-01-19T06:30:29.119Z,67.14
2023-01-19T06:34:32.286Z,67.36
2023-01-19T06:38:35.199Z,67.09
2023-01-19T06:42:38.132Z,67.40
2023-01-19T06:46:42.407Z,67.17
2023-01-19T06:50:46.677Z,67.29
2023-01-19T06:54:49.827Z,67.42
2023-01-19T06:58:53.104Z,67.51
2023-01-19T07:02:57.904Z,67.59
2023-01-19T07:07:01.480Z,67.55
2023-01-19T07:11:25.849Z,68.00
2023-01-19T07:15:29.319Z,67.88
2023-01-19T07:19:35.021Z,68.04
2023-01-19T07:23:38.569Z,68.33
2023-01-19T07:27:42.276Z,68.40
2023-01-19T07:31:45.954Z,68.09
2023-01-19T07:35:51.412Z,68.11
2023-01-19T07:39:54.370Z,68.22
2023-01-19T07:43:57.270Z,68.28
2023-01-19T07:48:00.212Z,68.48
2023-01-19T07:52:04.605Z,68.55
2023-01-19T07:56:07.835Z,68.53
2023-01-19T08:00:14.401Z,68.37
2023-01-19T08:04:19.081Z,68.54
2023-01-19T08:08:23.511Z,68.60
2023-01-19T08:12:26.852Z,68.87
2023-01-19T08:16:29.803Z,68.92
2023-01-19T08:20:33.530Z,68.57
2023-01-19T08:24:37.858Z,68.44
2023-01-19T08:28:41.095Z,68.64
2023-01-19T08:32:44.073Z,68.52
2023-01-19T08:36:47.726Z,67.69
2023-01-19T08:40:51.991Z,68.29
2023-01-19T08:44:58.645Z,68.01
2023-01-19T08:49:01.792Z,67.92
2023-01-19T08:53:07.137Z,67.58
2023-01-19T08:57:11.467Z,67.56
2023-01-19T09:01:16.894Z,68.03
2023-01-19T09:05:20.366Z,68.48
2023-01-19T09:09:23.283Z,68.45
2023-01-19T09:13:27.537Z,68.31
2023-01-19T09:17:30.413Z,68.05
2023-01-19T09:21:33.303Z,68.14
2023-01-19T09:25:36.220Z,68.20
2023-01-19T09:29:40.687Z,67.86
2023-01-19T09:33:43.655Z,67.99
2023-01-19T09:37:47.538Z,67.45
2023-01-19T09:42:02.133Z,67.19
2023-01-19T09:46:12.341Z,66.79
2023-01-19T09:50:21.834Z,66.99
2023-01-19T09:54:31.208Z,66.68
2023-01-19T09:58:34.152Z,66.91
2023-01-19T10:02:44.161Z,66.09
2023-01-19T10:06:48.844Z,65.87
2023-01-19T10:10:55.014Z,66.24
2023-01-19T10:15:04.793Z,65.67
2023-01-19T10:19:24.642Z,65.96
2023-01-19T10:23:48.109Z,65.65
2023-01-19T10:27:51.347Z,65.65
2023-01-19T10:32:02.437Z,64.34
2023-01-19T10:36:17.294Z,64.02
2023-01-19T10:40:29.988Z,62.84
2023-01-19T10:44:38.266Z,63.15
2023-01-19T10:48:42.964Z,63.39
2023-01-19T10:52:52.058Z,63.70
2023-01-19T10:56:57.733Z,63.74
2023-01-19T11:01:14.359Z,64.17
2023-01-19T11:05:26.180Z,64.05
2023-01-19T11:09:30.534Z,64.06
2023-01-19T11:13:33.567Z,64.29
2023-01-19T11:17:36.774Z,63.85
2023-01-19T11:21:39.827Z,64.16
2023-01-19T11:25:47.443Z,64.61
2023-01-19T11:29:54.679Z,63.95
2023-01-19T11:33:59.401Z,63.73
2023-01-19T11:38:18.111Z,64.19
2023-01-19T11:42:23.242Z,64.03
2023-01-19T11:46:32.355Z,62.89
2023-01-19T11:50:42.347Z,62.53
2023-01-19T11:54:50.543Z,62.83
2023-01-19T11:58:54.911Z,61.51
2023-01-19T12:03:04.077Z,60.45
2023-01-19T12:07:10.698Z,58.62
2023-01-19T12:11:18.059Z,57.54
2023-01-19T12:15:30.989Z,56.63
2023-01-19T12:19:44.160Z,55.86
2023-01-19T12:24:01.307Z,56.71
2023-01-19T12:28:04.799Z,55.76
2023-01-19T12:32:34.428Z,54.12
2023-01-19T12:36:39.682Z,52.90
2023-01-19T12:40:42.566Z,53.01
2023-01-19T12:44:47.033Z,51.88
2023-01-19T12:48:51.389Z,50.86
2023-01-19T12:52:58.411Z,51.62
2023-01-19T12:57:03.877Z,51.96
2023-01-19T13:01:16.155Z,52.66
2023-01-19T13:05:57.781Z,52.80
2023-01-19T13:10:22.089Z,53.29
2023-01-19T13:14:39.824Z,53.82
2023-01-19T13:18:43.877Z,54.03
2023-01-19T13:23:19.704Z,54.83
2023-01-19T13:27:28.516Z,55.60
2023-01-19T13:31:35.791Z,56.03
2023-01-19T13:35:38.979Z,55.79
2023-01-19T13:39:44.793Z,55.67
2023-01-19T13:43:55.496Z,56.41
2023-01-19T13:48:01.657Z,56.68
2023-01-19T13:52:06.363Z,56.98
2023-01-19T13:56:21.865Z,57.13
2023-01-19T14:00:27.822Z,57.06
2023-01-19T14:04:32.402Z,56.97
2023-01-19T14:08:35.462Z,56.64
2023-01-19T14:12:58.325Z,56.19
2023-01-19T14:17:32.813Z,55.93
2023-01-19T14:21:40.649Z,56.35
2023-01-19T14:25:45.801Z,56.34
2023-01-19T14:29:50.712Z,55.55
2023-01-19T14:33:58.404Z,55.94
2023-01-19T14:38:01.402Z,56.37
2023-01-19T14:42:07.815Z,56.12
2023-01-19T14:46:18.686Z,56.68
2023-01-19T14:50:26.209Z,56.93
2023-01-19T14:54:40.078Z,57.12
2023-01-19T14:58:43.023Z,58.11
2023-01-19T15:02:46.667Z,58.95
2023-01-19T15:06:50.984Z,59.79
2023-01-19T15:10:54.051Z,59.92
2023-01-19T15:14:57.643Z,60.06
2023-01-19T15:19:00.932Z,60.36
2023-01-19T15:23:05.289Z,60.67
2023-01-19T15:27:11.765Z,61.06
2023-01-19T15:31:17.056Z,61.04
2023-01-19T15:35:22.148Z,61.49
2023-01-19T15:39:27.172Z,61.79
2023-01-19T15:43:30.324Z,61.74
2023-01-19T15:47:33.253Z,62.28
2023-01-19T15:51:36.340Z,62.17
2023-01-19T15:55:40.688Z,62.55
2023-01-19T15:59:44.286Z,62.74
2023-01-19T16:03:47.491Z,62.75
2023-01-19T16:07:50.511Z,62.63
2023-01-19T16:11:56.795Z,62.74
2023-01-19T16:16:03.306Z,62.82
2023-01-19T16:20:07.805Z,62.51
2023-01-19T16:24:10.912Z,62.53
2023-01-19T16:28:15.182Z,62.68
2023-01-19T16:32:18.193Z,62.82
2023-01-19T16:36:23.589Z,62.77
2023-01-19T16:40:27.468Z,62.75
2023-01-19T16:44:31.985Z,62.76
2023-01-19T16:48:34.964Z,62.78
2023-01-19T16:52:38.072Z,63.00
2023-01-19T16:56:41.519Z,63.23
2023-01-19T17:00:45.888Z,63.37
2023-01-19T17:04:49.263Z,63.33
2023-01-19T17:08:53.699Z,63.10
2023-01-19T17:12:56.654Z,63.35
2023-01-19T17:17:01.151Z,63.41
2023-01-19T17:21:06.519Z,63.39
2023-01-19T17:25:09.779Z,63.55
2023-01-19T17:29:12.908Z,63.58
2023-01-19T17:33:17.243Z,63.43
2023-01-19T17:37:20.194Z,63.23
2023-01-19T17:41:25.223Z,63.22
2023-01-19T17:45:28.139Z,62.98
2023-01-19T17:49:32.516Z,62.88
2023-01-19T17:53:37.837Z,62.87
2023-01-19T17:57:40.944Z,62.92
2023-01-19T18:01:44.996Z,63.06
2023-01-19T18:05:55.566Z,63.15
2023-01-19T18:10:00.887Z,63.32
2023-01-19T18:14:04.087Z,63.78
2023-01-19T18:18:07.036Z,63.64
2023-01-19T18:22:11.283Z,63.36
2023-01-19T18:26:16.112Z,63.09
2023-01-19T18:30:20.392Z,63.38
2023-01-19T18:34:23.365Z,63.49
2023-01-19T18:38:27.734Z,63.47
2023-01-19T18:42:30.629Z,63.50
2023-01-19T18:46:33.666Z,63.76
2023-01-19T18:50:36.552Z,63.86
2023-01-19T18:54:41.200Z,63.88
2023-01-19T18:58:44.853Z,63.89
2023-01-19T19:02:47.815Z,64.15
2023-01-19T19:06:50.870Z,64.49
2023-01-19T19:10:55.130Z,64.79
2023-01-19T19:14:58.252Z,64.69
2023-01-19T19:19:01.219Z,64.86
2023-01-19T19:23:04.130Z,64.78
2023-01-19T19:27:13.889Z,64.99
2023-01-19T19:31:20.445Z,65.12
2023-01-19T19:35:24.009Z,65.15
2023-01-19T19:39:27.141Z,65.12
2023-01-19T19:43:32.767Z,65.35
2023-01-19T19:47:35.666Z,65.29
2023-01-19T19:51:38.909Z,65.41
2023-01-19T19:55:42.049Z,65.12
2023-01-19T19:59:46.389Z,65.26
2023-01-19T20:03:49.659Z,65.10
2023-01-19T20:07:52.682Z,65.12
2023-01-19T20:11:55.555Z,65.29
2023-01-19T20:16:01.885Z,65.09
2023-01-19T20:20:05.337Z,65.05
2023-01-19T20:24:11.434Z,65.26
2023-01-19T20:28:14.325Z,65.26
2023-01-19T20:32:18.586Z,65.52
2023-01-19T20:36:22.089Z,65.76
2023-01-19T20:40:24.984Z,65.58
2023-01-19T20:44:27.966Z,65.72
2023-01-19T20:48:32.708Z,65.88
2023-01-19T20:52:36.274Z,65.85
2023-01-19T20:56:41.225Z,65.98
2023-01-19T21:00:44.739Z,66.25
2023-01-19T21:04:49.307Z,66.34
2023-01-19T21:08:52.594Z,66.43
2023-01-19T21:12:55.627Z,66.53
2023-01-19T21:16:58.701Z,66.48
2023-01-19T21:21:03.183Z,66.77
2023-01-19T21:25:07.487Z,66.97
2023-01-19T21:29:13.295Z,67.00
2023-01-19T21:33:17.005Z,66.99
2023-01-19T21:37:21.511Z,66.94
2023-01-19T21:41:24.500Z,67.13
2023-01-19T21:45:27.556Z,67.41
2023-01-19T21:49:31.004Z,67.38
2023-01-19T21:53:35.516Z,67.50
2023-01-19T21:57:38.544Z,67.48
2023-01-19T22:01:42.272Z,67.76
2023-01-19T22:05:45.584Z,67.65
2023-01-19T22:09:50.112Z,67.54
2023-01-19T22:13:53.293Z,67.63
2023-01-19T22:17:56.299Z,67.43
2023-01-19T22:21:59.279Z,68.15
2023-01-19T22:26:03.781Z,68.08
2023-01-19T22:30:08.105Z,68.13
2023-01-19T22:34:12.036Z,68.00
2023-01-19T22:38:15.231Z,67.99
2023-01-19T22:42:19.697Z,68.17
2023-01-19T22:46:24.866Z,68.07
2023-01-19T22:50:27.896Z,67.94
2023-01-19T22:54:30.913Z,67.80
2023-01-19T22:58:35.344Z,67.85
2023-01-19T23:02:38.373Z,67.95
2023-01-19T23:06:41.593Z,67.78
2023-01-19T23:10:44.843Z,67.83
2023-01-19T23:14:49.310Z,67.81
2023-01-19T23:18:55.059Z,67.88
2023-01-19T23:22:58.033Z,68.09
2023-01-19T23:27:02.397Z,67.84
2023-01-19T23:31:16.396Z,67.66
2023-01-19T23:35:19.483Z,68.00
2023-01-19T23:39:23.746Z,67.89
2023-01-19T23:43:26.809Z,68.10
2023-01-19T23:47:31.227Z,68.07
2023-01-19T23:51:34.977Z,68.51
2023-01-19T23:55:38.176Z,68.26
2023-01-19T23:59:41.425Z,68.22
